Main page
METAR-TAF:

METAR-TAF

Airports :

Beja, Portugal

Beja Airbase

latitude: 38-04-40N, longitude: 007-55-57W, elevation: 193 m

Current weather observation

The report was made 53 minutes ago, at 09:00 UTC
Wind 3 kt from the North/Northeast, varying between North/Northwest and East/Northeast
Temperature 14°C
Humidity 72%
Pressure 1026 hPa
Visibility 10 km or more
no clouds below 1500 m and no cumulonimbus

METAR: LPBJ 220900Z 03003KT 340V060 CAVOK 14/09 Q1026

Time: 10:53 (09:53 UTC)

Forecast

The report was made 4 hours and 49 minutes ago, at 05:04 UTC
Forecast valid from 22 at 06 UTC to 23 at 06 UTC
Wind 5 kt from the North
Visibility 10 km or more
no clouds below 1500 m and no cumulonimbus

TAF: LPBJ 220504Z 2206/2306 36005KT CAVOK

Weather observations and forecasts of more than 4000 airports (METAR and TAF reports).

The available stations are represented by yellow and red dots on the map.

Hover mouse over dot to see the name of the station.

Then click to see weather observations and forecasts.

To change the map : click on the green buttons with a black cross to zoom in, on the green button with a dash to zoom out, or on the green arrows for adjacent maps.


METAR-TAF: